sensor_id;sensor_type;location;lat;lon;timestamp;P1;P2;P0
73146;PMS7003;61345;48.922;2.244;2023-05-10T00:00:44;0.50;0.00;0.00
73146;PMS7003;61345;48.922;2.244;2023-05-10T00:03:09;1.00;0.00;0.00
73146;PMS7003;61345;48.922;2.244;2023-05-10T00:05:35;0.00;0.00;0.00
73146;PMS7003;61345;48.922;2.244;2023-05-10T00:08:00;0.00;0.00;0.00
73146;PMS7003;61345;48.922;2.244;2023-05-10T00:10:25;2.00;1.00;0.00
73146;PMS7003;61345;48.922;2.244;2023-05-10T00:12:50;1.00;0.00;0.00
73146;PMS7003;61345;48.922;2.244;2023-05-10T00:15:15;1.00;0.00;0.00
73146;PMS7003;61345;48.922;2.244;2023-05-10T00:17:41;0.00;0.00;0.00
73146;PMS7003;61345;48.922;2.244;2023-05-10T00:20:06;1.67;0.00;0.00
73146;PMS7003;61345;48.922;2.244;2023-05-10T00:22:31;0.00;0.00;0.00
73146;PMS7003;61345;48.922;2.244;2023-05-10T00:24:57;0.00;0.00;0.00
73146;PMS7003;61345;48.922;2.244;2023-05-10T00:27:22;0.75;0.00;0.00
73146;PMS7003;61345;48.922;2.244;2023-05-10T00:29:48;1.00;0.00;0.00
73146;PMS7003;61345;48.922;2.244;2023-05-10T00:32:13;0.00;0.00;0.00
73146;PMS7003;61345;48.922;2.244;2023-05-10T00:34:38;1.00;0.00;0.00
73146;PMS7003;61345;48.922;2.244;2023-05-10T00:37:04;0.67;0.00;0.00
73146;PMS7003;61345;48.922;2.244;2023-05-10T00:39:29;0.00;0.00;0.00
73146;PMS7003;61345;48.922;2.244;2023-05-10T00:41:54;0.00;0.00;0.00
73146;PMS7003;61345;48.922;2.244;2023-05-10T00:44:20;0.00;0.00;0.00
73146;PMS7003;61345;48.922;2.244;2023-05-10T00:46:45;0.00;0.00;0.00
73146;PMS7003;61345;48.922;2.244;2023-05-10T00:49:11;1.00;0.00;0.00
73146;PMS7003;61345;48.922;2.244;2023-05-10T00:51:36;0.00;0.00;0.00
73146;PMS7003;61345;48.922;2.244;2023-05-10T00:54:01;0.00;0.00;0.00
73146;PMS7003;61345;48.922;2.244;2023-05-10T00:56:27;0.25;0.00;0.00
73146;PMS7003;61345;48.922;2.244;2023-05-10T00:58:54;0.00;0.00;0.00
73146;PMS7003;61345;48.922;2.244;2023-05-10T01:01:19;0.00;0.00;0.00
73146;PMS7003;61345;48.922;2.244;2023-05-10T01:03:44;0.00;0.00;0.00
73146;PMS7003;61345;48.922;2.244;2023-05-10T01:06:10;1.00;0.00;0.00
73146;PMS7003;61345;48.922;2.244;2023-05-10T01:08:36;0.00;0.00;0.00
73146;PMS7003;61345;48.922;2.244;2023-05-10T01:11:01;0.00;0.00;0.00
73146;PMS7003;61345;48.922;2.244;2023-05-10T01:13:30;0.00;0.00;0.00
73146;PMS7003;61345;48.922;2.244;2023-05-10T01:15:56;0.00;0.00;0.00
73146;PMS7003;61345;48.922;2.244;2023-05-10T01:18:22;1.50;0.00;0.00
73146;PMS7003;61345;48.922;2.244;2023-05-10T01:20:48;0.00;0.00;0.00
73146;PMS7003;61345;48.922;2.244;2023-05-10T01:23:31;0.00;0.00;0.00
73146;PMS7003;61345;48.922;2.244;2023-05-10T01:34:07;1.00;0.00;0.00
73146;PMS7003;61345;48.922;2.244;2023-05-10T01:36:43;1.00;0.00;0.00
73146;PMS7003;61345;48.922;2.244;2023-05-10T01:39:28;1.00;0.00;0.00
73146;PMS7003;61345;48.922;2.244;2023-05-10T01:46:53;0.00;0.00;0.00
73146;PMS7003;61345;48.922;2.244;2023-05-10T01:49:41;0.00;0.00;0.00
73146;PMS7003;61345;48.922;2.244;2023-05-10T01:52:09;2.75;0.00;0.00
73146;PMS7003;61345;48.922;2.244;2023-05-10T01:54:35;0.00;0.00;0.00
73146;PMS7003;61345;48.922;2.244;2023-05-10T01:57:03;1.50;0.00;0.00
73146;PMS7003;61345;48.922;2.244;2023-05-10T01:59:30;0.00;0.00;0.00
73146;PMS7003;61345;48.922;2.244;2023-05-10T02:01:58;0.00;0.00;0.00
73146;PMS7003;61345;48.922;2.244;2023-05-10T02:04:24;0.00;0.00;0.00
73146;PMS7003;61345;48.922;2.244;2023-05-10T02:06:50;0.00;0.00;0.00
73146;PMS7003;61345;48.922;2.244;2023-05-10T02:09:16;0.00;0.00;0.00
73146;PMS7003;61345;48.922;2.244;2023-05-10T02:11:42;0.00;0.00;0.00
73146;PMS7003;61345;48.922;2.244;2023-05-10T02:14:09;0.00;0.00;0.00
73146;PMS7003;61345;48.922;2.244;2023-05-10T02:16:34;0.00;0.00;0.00
73146;PMS7003;61345;48.922;2.244;2023-05-10T02:19:00;0.00;0.00;0.00
73146;PMS7003;61345;48.922;2.244;2023-05-10T02:21:26;0.00;0.00;0.00
73146;PMS7003;61345;48.922;2.244;2023-05-10T02:23:52;0.00;0.00;0.00
73146;PMS7003;61345;48.922;2.244;2023-05-10T02:26:19;0.00;0.00;0.00
73146;PMS7003;61345;48.922;2.244;2023-05-10T02:28:46;0.00;0.00;0.00
73146;PMS7003;61345;48.922;2.244;2023-05-10T02:31:12;0.00;0.00;0.00
73146;PMS7003;61345;48.922;2.244;2023-05-10T02:33:38;0.00;0.00;0.00
73146;PMS7003;61345;48.922;2.244;2023-05-10T02:36:05;0.00;0.00;0.00
73146;PMS7003;61345;48.922;2.244;2023-05-10T02:38:32;0.00;0.00;0.00
73146;PMS7003;61345;48.922;2.244;2023-05-10T02:40:58;0.00;0.00;0.00
73146;PMS7003;61345;48.922;2.244;2023-05-10T02:43:24;0.00;0.00;0.00
73146;PMS7003;61345;48.922;2.244;2023-05-10T02:45:49;0.00;0.00;0.00
73146;PMS7003;61345;48.922;2.244;2023-05-10T02:48:15;0.00;0.00;0.00
73146;PMS7003;61345;48.922;2.244;2023-05-10T02:50:42;0.00;0.00;0.00
73146;PMS7003;61345;48.922;2.244;2023-05-10T02:53:09;0.00;0.00;0.00
73146;PMS7003;61345;48.922;2.244;2023-05-10T02:55:36;0.00;0.00;0.00
73146;PMS7003;61345;48.922;2.244;2023-05-10T02:58:02;0.00;0.00;0.00
73146;PMS7003;61345;48.922;2.244;2023-05-10T03:00:28;0.00;0.00;0.00
73146;PMS7003;61345;48.922;2.244;2023-05-10T03:02:54;3.00;0.00;0.00
73146;PMS7003;61345;48.922;2.244;2023-05-10T03:05:19;0.00;0.00;0.00
73146;PMS7003;61345;48.922;2.244;2023-05-10T03:07:45;0.00;0.00;0.00
73146;PMS7003;61345;48.922;2.244;2023-05-10T03:10:11;1.00;0.00;0.00
73146;PMS7003;61345;48.922;2.244;2023-05-10T03:15:37;0.00;0.00;0.00
73146;PMS7003;61345;48.922;2.244;2023-05-10T03:18:15;0.00;0.00;0.00
73146;PMS7003;61345;48.922;2.244;2023-05-10T03:20:47;1.00;0.00;0.00
73146;PMS7003;61345;48.922;2.244;2023-05-10T03:23:13;0.00;0.00;0.00
73146;PMS7003;61345;48.922;2.244;2023-05-10T03:25:46;0.00;0.00;0.00
73146;PMS7003;61345;48.922;2.244;2023-05-10T03:28:12;0.50;0.00;0.00
73146;PMS7003;61345;48.922;2.244;2023-05-10T03:30:39;1.00;0.00;0.00
73146;PMS7003;61345;48.922;2.244;2023-05-10T03:33:05;0.00;0.00;0.00
73146;PMS7003;61345;48.922;2.244;2023-05-10T03:35:31;0.00;0.00;0.00
73146;PMS7003;61345;48.922;2.244;2023-05-10T03:37:56;0.00;0.00;0.00
73146;PMS7003;61345;48.922;2.244;2023-05-10T03:40:21;0.00;0.00;0.00
73146;PMS7003;61345;48.922;2.244;2023-05-10T03:42:47;0.00;0.00;0.00
73146;PMS7003;61345;48.922;2.244;2023-05-10T03:45:13;0.00;0.00;0.00
73146;PMS7003;61345;48.922;2.244;2023-05-10T03:47:38;0.00;0.00;0.00
73146;PMS7003;61345;48.922;2.244;2023-05-10T03:50:03;0.00;0.00;0.00
73146;PMS7003;61345;48.922;2.244;2023-05-10T03:52:29;0.00;0.00;0.00
73146;PMS7003;61345;48.922;2.244;2023-05-10T03:54:54;0.33;0.33;0.33
73146;PMS7003;61345;48.922;2.244;2023-05-10T03:57:19;0.00;0.00;0.00
73146;PMS7003;61345;48.922;2.244;2023-05-10T03:59:44;0.00;0.00;0.00
73146;PMS7003;61345;48.922;2.244;2023-05-10T04:02:10;0.00;0.00;0.00
73146;PMS7003;61345;48.922;2.244;2023-05-10T04:04:35;0.00;0.00;0.00
73146;PMS7003;61345;48.922;2.244;2023-05-10T04:07:00;0.00;0.00;0.00
73146;PMS7003;61345;48.922;2.244;2023-05-10T04:09:25;0.00;0.00;0.00
73146;PMS7003;61345;48.922;2.244;2023-05-10T04:11:51;0.00;0.00;0.00
73146;PMS7003;61345;48.922;2.244;2023-05-10T04:14:16;0.00;0.00;0.00
73146;PMS7003;61345;48.922;2.244;2023-05-10T04:16:41;0.00;0.00;0.00
73146;PMS7003;61345;48.922;2.244;2023-05-10T04:19:06;0.00;0.00;0.00
73146;PMS7003;61345;48.922;2.244;2023-05-10T04:21:32;0.00;0.00;0.00
73146;PMS7003;61345;48.922;2.244;2023-05-10T04:23:57;0.00;0.00;0.00
73146;PMS7003;61345;48.922;2.244;2023-05-10T04:26:22;0.00;0.00;0.00
73146;PMS7003;61345;48.922;2.244;2023-05-10T04:28:48;0.00;0.00;0.00
73146;PMS7003;61345;48.922;2.244;2023-05-10T04:31:13;0.00;0.00;0.00
73146;PMS7003;61345;48.922;2.244;2023-05-10T04:33:38;0.00;0.00;0.00
73146;PMS7003;61345;48.922;2.244;2023-05-10T04:36:04;0.00;0.00;0.00
73146;PMS7003;61345;48.922;2.244;2023-05-10T04:38:29;0.00;0.00;0.00
73146;PMS7003;61345;48.922;2.244;2023-05-10T04:40:54;0.00;0.00;0.00
73146;PMS7003;61345;48.922;2.244;2023-05-10T04:43:28;0.00;0.00;0.00
73146;PMS7003;61345;48.922;2.244;2023-05-10T04:45:54;0.00;0.00;0.00
73146;PMS7003;61345;48.922;2.244;2023-05-10T04:48:21;0.00;0.00;0.00
73146;PMS7003;61345;48.922;2.244;2023-05-10T04:50:46;0.00;0.00;0.00
73146;PMS7003;61345;48.922;2.244;2023-05-10T04:53:11;0.00;0.00;0.00
73146;PMS7003;61345;48.922;2.244;2023-05-10T04:55:36;0.00;0.00;0.00
73146;PMS7003;61345;48.922;2.244;2023-05-10T04:58:01;0.00;0.00;0.00
73146;PMS7003;61345;48.922;2.244;2023-05-10T05:00:27;0.00;0.00;0.00
73146;PMS7003;61345;48.922;2.244;2023-05-10T05:02:52;0.00;0.00;0.00
73146;PMS7003;61345;48.922;2.244;2023-05-10T05:05:18;0.00;0.00;0.00
73146;PMS7003;61345;48.922;2.244;2023-05-10T05:07:43;0.00;0.00;0.00
73146;PMS7003;61345;48.922;2.244;2023-05-10T05:10:08;0.00;0.00;0.00
73146;PMS7003;61345;48.922;2.244;2023-05-10T05:12:34;0.00;0.00;0.00
73146;PMS7003;61345;48.922;2.244;2023-05-10T05:14:59;0.00;0.00;0.00
73146;PMS7003;61345;48.922;2.244;2023-05-10T05:17:24;2.00;0.50;0.00
73146;PMS7003;61345;48.922;2.244;2023-05-10T05:19:50;0.00;0.00;0.00
73146;PMS7003;61345;48.922;2.244;2023-05-10T05:22:15;0.00;0.00;0.00
73146;PMS7003;61345;48.922;2.244;2023-05-10T05:24:40;0.00;0.00;0.00
73146;PMS7003;61345;48.922;2.244;2023-05-10T05:27:06;2.00;0.00;0.00
73146;PMS7003;61345;48.922;2.244;2023-05-10T05:29:31;0.00;0.00;0.00
73146;PMS7003;61345;48.922;2.244;2023-05-10T05:31:56;0.00;0.00;0.00
73146;PMS7003;61345;48.922;2.244;2023-05-10T05:34:21;0.00;0.00;0.00
73146;PMS7003;61345;48.922;2.244;2023-05-10T05:36:47;1.00;0.00;0.00
73146;PMS7003;61345;48.922;2.244;2023-05-10T05:39:12;0.50;0.50;0.00
73146;PMS7003;61345;48.922;2.244;2023-05-10T05:41:38;0.33;0.00;0.00
73146;PMS7003;61345;48.922;2.244;2023-05-10T05:44:03;0.00;0.00;0.00
73146;PMS7003;61345;48.922;2.244;2023-05-10T05:46:28;0.00;0.00;0.00
73146;PMS7003;61345;48.922;2.244;2023-05-10T05:48:53;0.00;0.00;0.00
73146;PMS7003;61345;48.922;2.244;2023-05-10T05:51:18;0.00;0.00;0.00
73146;PMS7003;61345;48.922;2.244;2023-05-10T05:53:43;1.00;0.00;0.00
73146;PMS7003;61345;48.922;2.244;2023-05-10T05:56:09;0.00;0.00;0.00
73146;PMS7003;61345;48.922;2.244;2023-05-10T05:58:34;1.00;0.00;0.00
73146;PMS7003;61345;48.922;2.244;2023-05-10T06:00:59;1.00;0.00;0.00
73146;PMS7003;61345;48.922;2.244;2023-05-10T06:03:25;0.00;0.00;0.00
73146;PMS7003;61345;48.922;2.244;2023-05-10T06:05:50;0.67;0.67;0.67
73146;PMS7003;61345;48.922;2.244;2023-05-10T06:08:15;0.00;0.00;0.00
73146;PMS7003;61345;48.922;2.244;2023-05-10T06:10:40;0.00;0.00;0.00
73146;PMS7003;61345;48.922;2.244;2023-05-10T06:13:05;0.00;0.00;0.00
73146;PMS7003;61345;48.922;2.244;2023-05-10T06:15:31;1.00;1.00;1.00
73146;PMS7003;61345;48.922;2.244;2023-05-10T06:17:57;0.00;0.00;0.00
73146;PMS7003;61345;48.922;2.244;2023-05-10T06:20:22;1.33;0.00;0.00
73146;PMS7003;61345;48.922;2.244;2023-05-10T06:22:48;0.00;0.00;0.00
73146;PMS7003;61345;48.922;2.244;2023-05-10T06:25:13;0.00;0.00;0.00
73146;PMS7003;61345;48.922;2.244;2023-05-10T06:27:39;0.00;0.00;0.00
73146;PMS7003;61345;48.922;2.244;2023-05-10T06:30:04;0.00;0.00;0.00
73146;PMS7003;61345;48.922;2.244;2023-05-10T06:32:30;0.00;0.00;0.00
73146;PMS7003;61345;48.922;2.244;2023-05-10T06:34:55;0.00;0.00;0.00
73146;PMS7003;61345;48.922;2.244;2023-05-10T06:37:20;0.00;0.00;0.00
73146;PMS7003;61345;48.922;2.244;2023-05-10T06:39:45;1.00;1.00;1.00
73146;PMS7003;61345;48.922;2.244;2023-05-10T06:42:11;1.00;0.00;0.00
73146;PMS7003;61345;48.922;2.244;2023-05-10T06:44:36;3.33;0.33;0.33
73146;PMS7003;61345;48.922;2.244;2023-05-10T06:47:01;0.00;0.00;0.00
73146;PMS7003;61345;48.922;2.244;2023-05-10T06:49:26;0.00;0.00;0.00
73146;PMS7003;61345;48.922;2.244;2023-05-10T06:51:51;0.33;0.00;0.00
73146;PMS7003;61345;48.922;2.244;2023-05-10T06:54:17;1.00;0.00;0.00
73146;PMS7003;61345;48.922;2.244;2023-05-10T06:56:42;0.00;0.00;0.00
73146;PMS7003;61345;48.922;2.244;2023-05-10T06:59:08;1.67;1.00;0.00
73146;PMS7003;61345;48.922;2.244;2023-05-10T07:01:33;2.00;1.00;1.00
73146;PMS7003;61345;48.922;2.244;2023-05-10T07:03:58;0.00;0.00;0.00
73146;PMS7003;61345;48.922;2.244;2023-05-10T07:06:23;0.00;0.00;0.00
73146;PMS7003;61345;48.922;2.244;2023-05-10T07:08:49;0.00;0.00;0.00
73146;PMS7003;61345;48.922;2.244;2023-05-10T07:11:14;0.00;0.00;0.00
73146;PMS7003;61345;48.922;2.244;2023-05-10T07:13:39;0.00;0.00;0.00
73146;PMS7003;61345;48.922;2.244;2023-05-10T07:16:06;3.00;0.00;0.00
73146;PMS7003;61345;48.922;2.244;2023-05-10T07:18:32;3.00;0.00;0.00
73146;PMS7003;61345;48.922;2.244;2023-05-10T07:20:57;0.00;0.00;0.00
73146;PMS7003;61345;48.922;2.244;2023-05-10T07:23:23;2.00;0.00;0.00
73146;PMS7003;61345;48.922;2.244;2023-05-10T07:25:49;1.25;1.25;1.00
73146;PMS7003;61345;48.922;2.244;2023-05-10T07:28:14;2.75;1.00;0.25
73146;PMS7003;61345;48.922;2.244;2023-05-10T07:30:40;2.75;2.00;1.00
73146;PMS7003;61345;48.922;2.244;2023-05-10T07:33:05;0.00;0.00;0.00
73146;PMS7003;61345;48.922;2.244;2023-05-10T07:35:30;0.00;0.00;0.00
73146;PMS7003;61345;48.922;2.244;2023-05-10T07:37:56;3.00;1.00;1.00
73146;PMS7003;61345;48.922;2.244;2023-05-10T07:40:21;1.00;1.00;1.00
73146;PMS7003;61345;48.922;2.244;2023-05-10T07:42:46;1.00;1.00;1.00
73146;PMS7003;61345;48.922;2.244;2023-05-10T07:45:11;4.67;1.00;1.00
73146;PMS7003;61345;48.922;2.244;2023-05-10T07:47:37;0.67;0.67;0.00
73146;PMS7003;61345;48.922;2.244;2023-05-10T07:50:02;1.00;1.00;1.00
73146;PMS7003;61345;48.922;2.244;2023-05-10T07:52:27;1.00;1.00;0.50
73146;PMS7003;61345;48.922;2.244;2023-05-10T07:54:52;0.00;0.00;0.00
73146;PMS7003;61345;48.922;2.244;2023-05-10T07:57:18;0.00;0.00;0.00
73146;PMS7003;61345;48.922;2.244;2023-05-10T07:59:43;0.00;0.00;0.00
73146;PMS7003;61345;48.922;2.244;2023-05-10T08:02:09;1.00;1.00;0.25
73146;PMS7003;61345;48.922;2.244;2023-05-10T08:04:34;1.00;0.00;0.00
73146;PMS7003;61345;48.922;2.244;2023-05-10T08:07:00;3.00;2.00;1.67
73146;PMS7003;61345;48.922;2.244;2023-05-10T08:09:25;1.67;1.00;1.00
73146;PMS7003;61345;48.922;2.244;2023-05-10T08:11:50;1.33;0.33;0.33
73146;PMS7003;61345;48.922;2.244;2023-05-10T08:14:16;1.00;1.00;1.00
73146;PMS7003;61345;48.922;2.244;2023-05-10T08:16:41;1.00;1.00;1.00
73146;PMS7003;61345;48.922;2.244;2023-05-10T08:19:06;2.75;2.00;1.50
73146;PMS7003;61345;48.922;2.244;2023-05-10T08:21:31;3.00;3.00;2.00
73146;PMS7003;61345;48.922;2.244;2023-05-10T08:23:57;2.00;2.00;1.00
73146;PMS7003;61345;48.922;2.244;2023-05-10T08:26:22;3.75;2.00;1.00
73146;PMS7003;61345;48.922;2.244;2023-05-10T08:28:47;2.00;2.00;1.00
73146;PMS7003;61345;48.922;2.244;2023-05-10T08:31:13;2.00;2.00;1.25
73146;PMS7003;61345;48.922;2.244;2023-05-10T08:33:38;1.67;1.67;1.00
73146;PMS7003;61345;48.922;2.244;2023-05-10T08:36:03;1.67;1.67;1.00
73146;PMS7003;61345;48.922;2.244;2023-05-10T08:38:28;1.00;1.00;1.00
73146;PMS7003;61345;48.922;2.244;2023-05-10T08:40:54;1.00;1.00;1.00
73146;PMS7003;61345;48.922;2.244;2023-05-10T08:43:24;3.25;2.00;1.50
73146;PMS7003;61345;48.922;2.244;2023-05-10T08:46:00;3.00;2.00;1.00
73146;PMS7003;61345;48.922;2.244;2023-05-10T08:48:27;3.75;1.00;1.00
73146;PMS7003;61345;48.922;2.244;2023-05-10T08:50:53;1.00;1.00;1.00
73146;PMS7003;61345;48.922;2.244;2023-05-10T08:53:22;2.50;1.00;1.00
73146;PMS7003;61345;48.922;2.244;2023-05-10T08:55:49;2.00;1.00;1.00
73146;PMS7003;61345;48.922;2.244;2023-05-10T08:58:14;2.00;0.50;0.25
73146;PMS7003;61345;48.922;2.244;2023-05-10T09:00:40;1.00;1.00;1.00
73146;PMS7003;61345;48.922;2.244;2023-05-10T09:03:05;3.00;3.00;2.00
73146;PMS7003;61345;48.922;2.244;2023-05-10T09:05:31;2.25;0.00;0.00
73146;PMS7003;61345;48.922;2.244;2023-05-10T09:07:56;2.00;1.00;1.00
73146;PMS7003;61345;48.922;2.244;2023-05-10T09:10:22;4.33;1.00;1.00
73146;PMS7003;61345;48.922;2.244;2023-05-10T09:12:48;1.50;1.50;1.00
73146;PMS7003;61345;48.922;2.244;2023-05-10T09:15:14;1.25;1.00;1.00
73146;PMS7003;61345;48.922;2.244;2023-05-10T09:17:40;2.50;2.00;1.00
73146;PMS7003;61345;48.922;2.244;2023-05-10T09:20:06;1.75;1.75;0.50
73146;PMS7003;61345;48.922;2.244;2023-05-10T09:22:32;1.25;0.50;0.00
73146;PMS7003;61345;48.922;2.244;2023-05-10T09:25:07;2.00;2.00;1.50
73146;PMS7003;61345;48.922;2.244;2023-05-10T09:27:33;2.00;1.00;0.00
73146;PMS7003;61345;48.922;2.244;2023-05-10T09:29:58;3.00;1.00;1.00
73146;PMS7003;61345;48.922;2.244;2023-05-10T09:32:45;3.33;2.33;1.67
73146;PMS7003;61345;48.922;2.244;2023-05-10T09:37:36;4.00;1.00;1.00
73146;PMS7003;61345;48.922;2.244;2023-05-10T09:40:05;2.50;1.00;1.00
73146;PMS7003;61345;48.922;2.244;2023-05-10T09:42:31;2.00;1.00;1.00
73146;PMS7003;61345;48.922;2.244;2023-05-10T09:45:00;3.33;2.33;2.00
73146;PMS7003;61345;48.922;2.244;2023-05-10T09:47:25;1.50;1.50;1.00
73146;PMS7003;61345;48.922;2.244;2023-05-10T09:49:52;2.25;2.00;1.75
73146;PMS7003;61345;48.922;2.244;2023-05-10T09:52:17;1.00;1.00;1.00
73146;PMS7003;61345;48.922;2.244;2023-05-10T09:54:45;1.00;1.00;1.00
73146;PMS7003;61345;48.922;2.244;2023-05-10T09:57:20;3.00;1.00;1.00
73146;PMS7003;61345;48.922;2.244;2023-05-10T09:59:46;2.00;0.75;0.50
73146;PMS7003;61345;48.922;2.244;2023-05-10T10:02:11;5.00;1.25;0.25
73146;PMS7003;61345;48.922;2.244;2023-05-10T10:04:40;2.67;1.00;0.33
73146;PMS7003;61345;48.922;2.244;2023-05-10T10:07:05;2.25;2.00;1.00
73146;PMS7003;61345;48.922;2.244;2023-05-10T10:09:31;2.00;1.75;1.00
73146;PMS7003;61345;48.922;2.244;2023-05-10T10:11:57;3.75;1.50;0.50
73146;PMS7003;61345;48.922;2.244;2023-05-10T10:14:22;1.00;1.00;1.00
73146;PMS7003;61345;48.922;2.244;2023-05-10T10:16:49;1.00;0.75;0.00
73146;PMS7003;61345;48.922;2.244;2023-05-10T10:19:14;3.75;2.25;1.50
73146;PMS7003;61345;48.922;2.244;2023-05-10T10:21:40;3.50;1.50;1.00
73146;PMS7003;61345;48.922;2.244;2023-05-10T10:24:05;2.00;2.00;1.00
73146;PMS7003;61345;48.922;2.244;2023-05-10T10:26:33;3.25;2.00;2.00
73146;PMS7003;61345;48.922;2.244;2023-05-10T10:31:46;4.00;2.25;1.75
73146;PMS7003;61345;48.922;2.244;2023-05-10T10:34:19;6.25;2.00;1.00
73146;PMS7003;61345;48.922;2.244;2023-05-10T10:36:46;2.25;1.00;0.50
73146;PMS7003;61345;48.922;2.244;2023-05-10T10:39:15;2.00;2.00;1.00
73146;PMS7003;61345;48.922;2.244;2023-05-10T10:41:50;2.50;1.75;1.50
73146;PMS7003;61345;48.922;2.244;2023-05-10T10:54:52;2.50;1.25;1.00
73146;PMS7003;61345;48.922;2.244;2023-05-10T10:57:18;2.50;1.00;1.00
73146;PMS7003;61345;48.922;2.244;2023-05-10T10:59:44;1.00;1.00;0.75
73146;PMS7003;61345;48.922;2.244;2023-05-10T11:02:10;3.00;1.25;1.00
73146;PMS7003;61345;48.922;2.244;2023-05-10T11:04:41;1.25;1.00;1.00
73146;PMS7003;61345;48.922;2.244;2023-05-10T11:07:16;3.00;1.25;1.00
73146;PMS7003;61345;48.922;2.244;2023-05-10T11:09:42;2.00;1.00;1.00
73146;PMS7003;61345;48.922;2.244;2023-05-10T11:12:08;3.33;1.67;1.00
73146;PMS7003;61345;48.922;2.244;2023-05-10T11:14:33;2.75;1.75;1.00
73146;PMS7003;61345;48.922;2.244;2023-05-10T11:16:59;4.00;1.00;1.00
73146;PMS7003;61345;48.922;2.244;2023-05-10T11:19:27;2.75;0.75;0.75
73146;PMS7003;61345;48.922;2.244;2023-05-10T11:24:30;3.25;1.75;1.00
73146;PMS7003;61345;48.922;2.244;2023-05-10T11:26:55;1.67;1.00;1.00
73146;PMS7003;61345;48.922;2.244;2023-05-10T11:29:21;2.75;1.50;1.00
73146;PMS7003;61345;48.922;2.244;2023-05-10T11:31:46;1.75;1.75;1.00
73146;PMS7003;61345;48.922;2.244;2023-05-10T11:34:22;1.00;1.00;0.00
73146;PMS7003;61345;48.922;2.244;2023-05-10T11:36:50;1.00;1.00;1.00
73146;PMS7003;61345;48.922;2.244;2023-05-10T11:39:15;2.00;0.75;0.00
73146;PMS7003;61345;48.922;2.244;2023-05-10T11:41:41;2.33;1.67;1.00
73146;PMS7003;61345;48.922;2.244;2023-05-10T11:44:06;1.33;1.33;1.00
73146;PMS7003;61345;48.922;2.244;2023-05-10T11:46:34;2.50;1.75;1.00
73146;PMS7003;61345;48.922;2.244;2023-05-10T11:48:59;1.75;0.75;0.00
73146;PMS7003;61345;48.922;2.244;2023-05-10T11:51:34;1.75;1.25;1.00
73146;PMS7003;61345;48.922;2.244;2023-05-10T11:54:08;5.50;2.00;1.00
73146;PMS7003;61345;48.922;2.244;2023-05-10T11:56:34;0.75;0.75;0.75
73146;PMS7003;61345;48.922;2.244;2023-05-10T11:58:59;2.00;0.00;0.00
73146;PMS7003;61345;48.922;2.244;2023-05-10T12:01:26;3.00;1.00;0.50
73146;PMS7003;61345;48.922;2.244;2023-05-10T12:03:52;2.00;1.75;1.00
73146;PMS7003;61345;48.922;2.244;2023-05-10T12:06:18;2.75;1.50;0.50
73146;PMS7003;61345;48.922;2.244;2023-05-10T12:08:44;2.50;1.00;1.00
73146;PMS7003;61345;48.922;2.244;2023-05-10T12:11:11;5.00;1.75;1.00
73146;PMS7003;61345;48.922;2.244;2023-05-10T12:13:37;1.50;1.00;1.00
73146;PMS7003;61345;48.922;2.244;2023-05-10T12:16:13;1.25;1.00;0.00
73146;PMS7003;61345;48.922;2.244;2023-05-10T12:18:39;3.00;1.25;1.00
73146;PMS7003;61345;48.922;2.244;2023-05-10T12:21:05;2.00;1.00;1.00
73146;PMS7003;61345;48.922;2.244;2023-05-10T12:23:30;3.50;1.25;1.00
73146;PMS7003;61345;48.922;2.244;2023-05-10T12:26:01;3.00;1.00;1.00
73146;PMS7003;61345;48.922;2.244;2023-05-10T12:28:29;2.00;1.25;1.00
73146;PMS7003;61345;48.922;2.244;2023-05-10T12:30:54;3.75;1.00;0.75
73146;PMS7003;61345;48.922;2.244;2023-05-10T12:33:19;3.00;1.67;1.00
73146;PMS7003;61345;48.922;2.244;2023-05-10T12:35:46;1.00;1.00;1.00
73146;PMS7003;61345;48.922;2.244;2023-05-10T12:38:33;1.00;1.00;1.00
73146;PMS7003;61345;48.922;2.244;2023-05-10T12:41:17;1.00;1.00;1.00
73146;PMS7003;61345;48.922;2.244;2023-05-10T12:43:42;5.25;2.25;1.25
73146;PMS7003;61345;48.922;2.244;2023-05-10T12:46:11;1.00;1.00;1.00
73146;PMS7003;61345;48.922;2.244;2023-05-10T12:48:38;2.50;1.00;0.50
73146;PMS7003;61345;48.922;2.244;2023-05-10T12:51:04;2.50;2.00;1.00
73146;PMS7003;61345;48.922;2.244;2023-05-10T12:53:30;2.50;1.00;1.00
73146;PMS7003;61345;48.922;2.244;2023-05-10T12:55:55;2.00;2.00;1.00
73146;PMS7003;61345;48.922;2.244;2023-05-10T12:58:20;4.00;2.00;1.00
73146;PMS7003;61345;48.922;2.244;2023-05-10T13:00:45;2.00;1.00;1.00
73146;PMS7003;61345;48.922;2.244;2023-05-10T13:03:11;1.00;0.50;0.00
73146;PMS7003;61345;48.922;2.244;2023-05-10T13:05:36;1.33;1.33;1.00
73146;PMS7003;61345;48.922;2.244;2023-05-10T13:08:01;1.00;1.00;0.33
73146;PMS7003;61345;48.922;2.244;2023-05-10T13:10:28;3.00;0.75;0.50
73146;PMS7003;61345;48.922;2.244;2023-05-10T13:12:54;5.00;1.00;1.00
73146;PMS7003;61345;48.922;2.244;2023-05-10T13:15:19;0.00;0.00;0.00
73146;PMS7003;61345;48.922;2.244;2023-05-10T13:17:44;2.75;0.00;0.00
73146;PMS7003;61345;48.922;2.244;2023-05-10T13:20:10;1.00;1.00;1.00
73146;PMS7003;61345;48.922;2.244;2023-05-10T13:22:35;1.00;1.00;1.00
73146;PMS7003;61345;48.922;2.244;2023-05-10T13:25:01;3.00;1.67;1.00
73146;PMS7003;61345;48.922;2.244;2023-05-10T13:27:26;3.50;1.00;1.00
73146;PMS7003;61345;48.922;2.244;2023-05-10T13:29:51;2.00;0.00;0.00
73146;PMS7003;61345;48.922;2.244;2023-05-10T13:32:16;1.00;1.00;0.00
73146;PMS7003;61345;48.922;2.244;2023-05-10T13:34:41;2.00;1.00;1.00
73146;PMS7003;61345;48.922;2.244;2023-05-10T13:37:07;2.33;2.00;1.00
73146;PMS7003;61345;48.922;2.244;2023-05-10T13:39:32;4.33;1.00;1.00
73146;PMS7003;61345;48.922;2.244;2023-05-10T13:41:59;2.25;1.75;1.00
73146;PMS7003;61345;48.922;2.244;2023-05-10T13:44:24;3.67;1.67;1.00
73146;PMS7003;61345;48.922;2.244;2023-05-10T13:46:49;2.00;1.00;0.50
73146;PMS7003;61345;48.922;2.244;2023-05-10T13:49:15;0.25;0.25;0.00
73146;PMS7003;61345;48.922;2.244;2023-05-10T13:51:40;0.67;0.00;0.00
73146;PMS7003;61345;48.922;2.244;2023-05-10T13:54:05;2.00;0.00;0.00
73146;PMS7003;61345;48.922;2.244;2023-05-10T13:56:30;1.00;0.00;0.00
73146;PMS7003;61345;48.922;2.244;2023-05-10T13:58:56;1.00;0.00;0.00
73146;PMS7003;61345;48.922;2.244;2023-05-10T14:01:22;1.25;0.75;0.25
73146;PMS7003;61345;48.922;2.244;2023-05-10T14:03:47;0.00;0.00;0.00
73146;PMS7003;61345;48.922;2.244;2023-05-10T14:06:13;2.00;0.00;0.00
73146;PMS7003;61345;48.922;2.244;2023-05-10T14:08:38;2.67;0.00;0.00
73146;PMS7003;61345;48.922;2.244;2023-05-10T14:11:03;0.00;0.00;0.00
73146;PMS7003;61345;48.922;2.244;2023-05-10T14:13:28;0.25;0.00;0.00
73146;PMS7003;61345;48.922;2.244;2023-05-10T14:15:54;0.00;0.00;0.00
73146;PMS7003;61345;48.922;2.244;2023-05-10T14:18:19;0.00;0.00;0.00
73146;PMS7003;61345;48.922;2.244;2023-05-10T14:20:44;0.00;0.00;0.00
73146;PMS7003;61345;48.922;2.244;2023-05-10T14:23:09;1.75;1.00;0.75
73146;PMS7003;61345;48.922;2.244;2023-05-10T14:25:35;0.00;0.00;0.00
73146;PMS7003;61345;48.922;2.244;2023-05-10T14:28:00;0.50;0.00;0.00
73146;PMS7003;61345;48.922;2.244;2023-05-10T14:30:25;1.00;0.00;0.00
73146;PMS7003;61345;48.922;2.244;2023-05-10T14:32:51;0.00;0.00;0.00
73146;PMS7003;61345;48.922;2.244;2023-05-10T14:35:17;0.00;0.00;0.00
73146;PMS7003;61345;48.922;2.244;2023-05-10T14:37:42;0.00;0.00;0.00
73146;PMS7003;61345;48.922;2.244;2023-05-10T14:40:08;0.00;0.00;0.00
73146;PMS7003;61345;48.922;2.244;2023-05-10T14:42:34;0.00;0.00;0.00
73146;PMS7003;61345;48.922;2.244;2023-05-10T14:44:59;0.00;0.00;0.00
73146;PMS7003;61345;48.922;2.244;2023-05-10T14:47:25;2.00;0.00;0.00
73146;PMS7003;61345;48.922;2.244;2023-05-10T14:49:50;0.00;0.00;0.00
73146;PMS7003;61345;48.922;2.244;2023-05-10T14:52:15;0.00;0.00;0.00